createdAt,value
2023-02-11T00:02:08.367Z,21.35
2023-02-11T00:04:38.448Z,18.95
2023-02-11T00:07:12.430Z,20.73
2023-02-11T00:09:46.472Z,20.42
2023-02-11T00:12:24.693Z,21.00
2023-02-11T00:14:52.839Z,18.73
2023-02-11T00:17:24.020Z,21.02
2023-02-11T00:20:13.540Z,20.38
2023-02-11T00:22:43.411Z,20.67
2023-02-11T00:25:12.424Z,18.10
2023-02-11T00:27:42.305Z,18.55
2023-02-11T00:30:23.443Z,20.23
2023-02-11T00:32:51.306Z,21.60
2023-02-11T00:35:21.190Z,18.27
2023-02-11T00:37:57.142Z,19.83
2023-02-11T00:40:28.128Z,20.45
2023-02-11T00:42:56.291Z,19.80
2023-02-11T00:45:25.626Z,20.75
2023-02-11T00:47:53.735Z,21.85
2023-02-11T00:50:22.650Z,20.73
2023-02-11T00:52:50.784Z,19.60
2023-02-11T00:55:25.141Z,17.95
2023-02-11T00:58:01.298Z,18.92
2023-02-11T01:00:29.651Z,17.70
2023-02-11T01:02:57.825Z,16.52
2023-02-11T01:05:25.879Z,18.95
2023-02-11T01:07:54.045Z,19.38
2023-02-11T01:10:40.437Z,18.95
2023-02-11T01:13:09.542Z,20.05
2023-02-11T01:15:39.542Z,18.98
2023-02-11T01:18:13.421Z,19.15
2023-02-11T01:20:46.769Z,20.35
2023-02-11T01:23:16.715Z,18.63
2023-02-11T01:25:45.568Z,18.17
2023-02-11T01:28:21.159Z,20.33
2023-02-11T01:30:55.387Z,18.20
2023-02-11T01:33:27.790Z,17.85
2023-02-11T01:35:56.882Z,19.02
2023-02-11T01:38:29.891Z,18.33
2023-02-11T01:41:13.436Z,18.50
2023-02-11T01:43:44.468Z,18.17
2023-02-11T01:46:12.685Z,18.77
2023-02-11T01:48:45.730Z,17.40
2023-02-11T01:51:26.050Z,16.52
2023-02-11T01:54:13.755Z,18.40
2023-02-11T01:57:12.399Z,21.42
2023-02-11T01:59:49.444Z,20.85
2023-02-11T02:02:29.191Z,19.25
2023-02-11T02:05:04.724Z,20.02
2023-02-11T02:08:10.255Z,18.60
2023-02-11T02:10:50.441Z,20.38
2023-02-11T02:13:21.593Z,20.50
2023-02-11T02:15:59.496Z,21.60
2023-02-11T02:18:38.875Z,20.00
2023-02-11T02:21:21.857Z,19.60
2023-02-11T02:24:15.713Z,20.30
2023-02-11T02:27:02.548Z,20.27
2023-02-11T02:29:58.115Z,18.30
2023-02-11T02:32:49.109Z,18.40
2023-02-11T02:35:52.021Z,19.63
2023-02-11T02:38:33.496Z,17.40
2023-02-11T02:41:17.155Z,17.00
2023-02-11T02:43:51.624Z,16.73
2023-02-11T02:46:53.988Z,17.58
2023-02-11T02:49:40.655Z,17.70
2023-02-11T02:52:36.516Z,19.17
2023-02-11T02:55:24.112Z,17.27
2023-02-11T02:58:11.988Z,18.35
2023-02-11T03:00:49.088Z,15.30
2023-02-11T03:03:49.681Z,17.25
2023-02-11T03:06:50.143Z,18.90
2023-02-11T03:09:34.272Z,18.23
2023-02-11T03:12:19.365Z,19.27
2023-02-11T03:14:57.552Z,16.02
2023-02-11T03:17:28.692Z,16.98
2023-02-11T03:20:23.093Z,17.23
2023-02-11T03:22:58.462Z,17.65
2023-02-11T03:25:36.169Z,18.63
2023-02-11T03:28:32.335Z,17.05
2023-02-11T03:31:25.696Z,19.55
2023-02-11T03:34:00.575Z,16.98
2023-02-11T03:36:47.743Z,18.02
2023-02-11T03:45:30.906Z,14.73
2023-02-11T03:51:33.995Z,15.73
2023-02-11T03:54:20.619Z,14.63
2023-02-11T03:57:09.632Z,16.40
2023-02-11T04:00:04.512Z,14.77
2023-02-11T04:02:37.974Z,14.45
2023-02-11T04:05:17.040Z,12.20
2023-02-11T04:07:54.418Z,15.20
2023-02-11T04:10:46.086Z,15.77
2023-02-11T04:16:41.122Z,16.77
2023-02-11T04:19:29.575Z,15.65
2023-02-11T04:22:44.622Z,17.98
2023-02-11T04:27:13.340Z,13.77
2023-02-11T04:44:10.573Z,16.88
2023-02-11T06:25:16.286Z,13.52
2023-02-11T07:06:42.113Z,10.18
2023-02-11T07:51:25.898Z,13.85
2023-02-11T08:00:26.340Z,12.60
2023-02-11T08:06:27.532Z,10.82
2023-02-11T08:09:10.108Z,11.30
2023-02-11T08:12:07.484Z,11.38
2023-02-11T08:14:46.730Z,12.45
2023-02-11T08:17:25.679Z,11.60
2023-02-11T08:19:55.083Z,13.43
2023-02-11T08:22:45.391Z,10.88
2023-02-11T08:25:29.432Z,9.50
2023-02-11T08:28:03.876Z,9.43
2023-02-11T08:30:35.121Z,12.00
2023-02-11T08:33:17.587Z,11.90
2023-02-11T08:35:45.920Z,10.20
2023-02-11T08:38:22.545Z,10.18
2023-02-11T08:40:51.857Z,10.52
2023-02-11T08:43:19.965Z,10.02
2023-02-11T08:45:48.156Z,10.02
2023-02-11T08:48:31.785Z,11.20
2023-02-11T08:51:14.415Z,10.27
2023-02-11T08:53:42.406Z,11.57
2023-02-11T08:56:15.452Z,10.60
2023-02-11T08:58:44.919Z,10.73
2023-02-11T09:01:23.633Z,10.77
2023-02-11T09:04:02.357Z,10.45
2023-02-11T09:06:33.361Z,9.68
2023-02-11T09:09:12.482Z,10.77
2023-02-11T09:11:42.007Z,10.77
2023-02-11T09:14:16.204Z,10.20
2023-02-11T09:16:44.178Z,9.95
2023-02-11T09:19:31.382Z,10.68
2023-02-11T09:22:06.685Z,10.40
2023-02-11T09:24:37.496Z,10.63
2023-02-11T09:27:09.410Z,10.20
2023-02-11T09:29:37.386Z,10.13
2023-02-11T09:32:14.498Z,10.85
2023-02-11T09:34:48.652Z,10.27
2023-02-11T09:37:31.382Z,9.00
2023-02-11T09:40:12.302Z,10.20
2023-02-11T09:42:47.372Z,10.40
2023-02-11T09:45:36.262Z,9.40
2023-02-11T09:48:15.745Z,10.30
2023-02-11T09:51:00.255Z,10.48
2023-02-11T09:53:56.480Z,11.18
2023-02-11T09:56:36.685Z,10.85
2023-02-11T09:59:16.507Z,10.77
2023-02-11T10:02:06.084Z,11.88
2023-02-11T10:04:58.050Z,10.68
2023-02-11T10:07:44.667Z,11.45
2023-02-11T10:10:31.388Z,11.70
2023-02-11T10:13:21.981Z,10.88
2023-02-11T10:16:10.378Z,10.32
2023-02-11T10:19:00.668Z,10.35
2023-02-11T10:21:54.518Z,12.27
2023-02-11T10:24:30.299Z,11.85
2023-02-11T10:27:16.142Z,11.23
2023-02-11T10:29:47.686Z,10.02
2023-02-11T10:35:34.129Z,10.32
2023-02-11T10:41:17.954Z,10.85
2023-02-11T10:43:52.313Z,11.30
2023-02-11T10:46:30.866Z,10.55
2023-02-11T10:49:22.599Z,10.27
2023-02-11T10:54:33.213Z,10.50
2023-02-11T10:57:06.362Z,10.18
2023-02-11T10:59:46.664Z,10.27
2023-02-11T11:02:35.625Z,10.20
2023-02-11T11:05:06.134Z,10.23
2023-02-11T11:07:52.343Z,10.40
2023-02-11T11:10:31.304Z,10.60
2023-02-11T11:13:24.104Z,11.57
2023-02-11T11:16:14.155Z,12.38
2023-02-11T11:19:01.885Z,11.30
2023-02-11T11:21:49.666Z,12.05
2023-02-11T11:24:35.915Z,12.82
2023-02-11T11:30:22.214Z,11.90
2023-02-11T11:33:02.264Z,12.65
2023-02-11T11:35:34.188Z,12.63
2023-02-11T11:38:03.283Z,14.32
2023-02-11T11:40:42.504Z,13.23
2023-02-11T11:43:23.323Z,12.35
2023-02-11T11:46:13.515Z,14.10
2023-02-11T11:49:01.455Z,12.57
2023-02-11T11:51:42.571Z,14.82
2023-02-11T11:54:21.118Z,13.38
2023-02-11T11:57:23.356Z,13.25
2023-02-11T12:00:06.757Z,13.73
2023-02-11T12:03:02.054Z,13.20
2023-02-11T12:08:56.290Z,11.77
2023-02-11T12:11:50.253Z,13.35
2023-02-11T12:14:36.547Z,13.50
2023-02-11T12:17:12.526Z,12.43
2023-02-11T12:20:05.531Z,12.23
2023-02-11T12:26:10.214Z,12.20
2023-02-11T12:28:57.249Z,12.30
2023-02-11T12:31:55.263Z,12.48
2023-02-11T12:35:01.069Z,11.63
2023-02-11T12:37:42.626Z,12.07
2023-02-11T12:43:19.701Z,11.88
2023-02-11T12:46:13.308Z,12.10
2023-02-11T12:49:09.038Z,13.27
2023-02-11T12:52:05.034Z,11.57
2023-02-11T12:55:01.792Z,13.18
2023-02-11T12:57:42.866Z,11.77
2023-02-11T13:00:30.442Z,12.32
2023-02-11T13:06:19.072Z,11.90
2023-02-11T13:12:25.992Z,11.95
2023-02-11T13:14:55.345Z,12.45
2023-02-11T13:17:38.907Z,12.25
2023-02-11T13:20:25.716Z,12.75
2023-02-11T13:23:12.654Z,11.82
2023-02-11T13:26:00.392Z,12.05
2023-02-11T13:28:42.041Z,12.70
2023-02-11T13:33:45.661Z,12.30
2023-02-11T13:36:15.913Z,12.35
2023-02-11T13:39:26.377Z,10.90
2023-02-11T13:42:07.450Z,12.10
2023-02-11T13:44:39.081Z,12.40
2023-02-11T13:47:28.891Z,12.85
2023-02-11T13:50:13.295Z,12.55
2023-02-11T13:52:49.261Z,13.00
2023-02-11T13:55:33.859Z,12.57
2023-02-11T13:58:27.990Z,14.73
2023-02-11T14:01:04.367Z,12.82
2023-02-11T14:03:56.120Z,14.85
2023-02-11T14:09:20.176Z,13.23
2023-02-11T14:11:51.415Z,14.02
2023-02-11T14:14:25.535Z,13.90
2023-02-11T14:17:22.580Z,13.85
2023-02-11T14:20:20.892Z,13.93
2023-02-11T14:23:07.324Z,13.90
2023-02-11T14:25:42.863Z,14.75
2023-02-11T14:28:27.126Z,15.25
2023-02-11T14:31:01.358Z,14.95
2023-02-11T14:33:48.040Z,15.18
2023-02-11T14:36:48.354Z,14.18
2023-02-11T14:39:23.477Z,14.07
2023-02-11T14:41:54.006Z,15.65
2023-02-11T14:44:28.595Z,14.40
2023-02-11T14:47:04.802Z,13.10
2023-02-11T14:49:33.752Z,14.73
2023-02-11T14:52:18.292Z,15.70
2023-02-11T14:54:46.662Z,13.90
2023-02-11T14:57:40.572Z,14.20
2023-02-11T15:00:39.578Z,14.02
2023-02-11T15:03:12.320Z,14.98
2023-02-11T15:05:55.632Z,13.02
2023-02-11T15:08:52.492Z,15.57
2023-02-11T15:11:35.256Z,14.88
2023-02-11T15:14:09.329Z,16.33
2023-02-11T15:16:52.377Z,15.02
2023-02-11T15:19:26.408Z,14.70
2023-02-11T15:22:00.989Z,14.95
2023-02-11T15:24:36.819Z,14.18
2023-02-11T15:30:24.312Z,14.80
2023-02-11T15:33:08.144Z,14.93
2023-02-11T15:35:44.109Z,15.95
2023-02-11T15:38:21.028Z,16.20
2023-02-11T15:40:59.698Z,17.23
2023-02-11T15:43:52.496Z,14.25
2023-02-11T15:46:23.254Z,15.27
2023-02-11T15:49:34.254Z,13.55
2023-02-11T15:55:20.790Z,16.38
2023-02-11T16:01:23.542Z,14.95
2023-02-11T16:03:57.540Z,15.20
2023-02-11T16:06:36.270Z,14.55
2023-02-11T16:09:24.234Z,14.32
2023-02-11T16:11:54.924Z,17.85
2023-02-11T16:14:48.186Z,17.38
2023-02-11T16:17:35.690Z,16.27
2023-02-11T16:20:38.942Z,14.93
2023-02-11T16:23:23.038Z,15.77
2023-02-11T16:26:21.100Z,15.60
2023-02-11T16:28:51.540Z,15.52
2023-02-11T16:31:38.121Z,14.07
2023-02-11T16:34:14.827Z,14.05
2023-02-11T16:36:42.737Z,14.30
2023-02-11T16:39:12.208Z,12.45
2023-02-11T16:41:43.138Z,13.93
2023-02-11T16:44:13.419Z,13.82
2023-02-11T16:46:41.479Z,13.90
2023-02-11T16:49:33.299Z,15.10
2023-02-11T16:55:22.012Z,13.38
2023-02-11T16:57:52.156Z,13.52
2023-02-11T17:00:39.637Z,9.88
2023-02-11T17:03:19.673Z,14.00
2023-02-11T17:05:56.111Z,14.30
2023-02-11T17:08:27.176Z,14.10
2023-02-11T17:10:57.257Z,13.70
2023-02-11T17:13:25.040Z,14.48
2023-02-11T17:16:06.177Z,13.55
2023-02-11T17:21:53.589Z,14.55
2023-02-11T17:24:23.060Z,13.45
2023-02-11T17:27:27.876Z,12.55
2023-02-11T17:30:19.201Z,12.77
2023-02-11T17:32:52.143Z,11.82
2023-02-11T17:35:30.155Z,12.07
2023-02-11T17:38:13.154Z,12.63
2023-02-11T17:40:57.691Z,15.70
2023-02-11T17:43:26.297Z,14.02
2023-02-11T17:45:57.336Z,16.38
2023-02-11T17:48:45.706Z,13.32
2023-02-11T17:51:32.428Z,13.07
2023-02-11T17:54:14.207Z,12.55
2023-02-11T17:56:45.172Z,12.80
2023-02-11T17:59:14.597Z,11.35
2023-02-11T18:02:05.548Z,11.85
2023-02-11T18:04:54.324Z,11.55
2023-02-11T18:07:35.722Z,11.80
2023-02-11T18:12:54.538Z,12.13
2023-02-11T18:15:31.069Z,14.10
2023-02-11T18:17:59.120Z,11.73
2023-02-11T18:21:06.338Z,12.00
2023-02-11T18:24:06.016Z,11.65
2023-02-11T18:26:50.777Z,12.05
2023-02-11T18:29:23.650Z,11.18
2023-02-11T18:35:04.560Z,9.65
2023-02-11T18:37:32.304Z,11.73
2023-02-11T18:40:07.013Z,11.55
2023-02-11T18:42:48.511Z,11.82
2023-02-11T18:45:25.029Z,11.05
2023-02-11T18:47:54.961Z,11.05
2023-02-11T18:50:46.533Z,10.57
2023-02-11T18:53:26.340Z,10.00
2023-02-11T18:56:07.306Z,10.55
2023-02-11T18:58:37.216Z,10.95
2023-02-11T19:01:25.582Z,10.30
2023-02-11T19:03:55.835Z,9.93
2023-02-11T19:06:52.701Z,9.73
2023-02-11T19:09:27.855Z,9.75
2023-02-11T19:12:03.244Z,9.07
2023-02-11T19:14:32.772Z,9.27
2023-02-11T19:17:09.685Z,9.63
2023-02-11T19:20:07.213Z,9.88
2023-02-11T19:22:43.204Z,9.57
2023-02-11T19:25:23.326Z,9.82
2023-02-11T19:28:17.291Z,9.15
2023-02-11T19:31:00.485Z,10.38
2023-02-11T19:33:29.333Z,9.27
2023-02-11T19:36:00.243Z,9.10
2023-02-11T19:38:53.478Z,9.48
2023-02-11T19:41:27.361Z,10.35
2023-02-11T19:44:14.434Z,8.57
2023-02-11T19:46:42.473Z,8.98
2023-02-11T19:49:24.066Z,9.90
2023-02-11T19:54:23.532Z,9.48
2023-02-11T19:56:54.579Z,9.35
2023-02-11T19:59:35.810Z,9.52
2023-02-11T20:02:11.635Z,8.65
2023-02-11T20:04:45.976Z,10.07
2023-02-11T20:07:14.163Z,8.90
2023-02-11T20:09:44.152Z,10.93
2023-02-11T20:12:18.251Z,9.80
2023-02-11T20:14:57.359Z,10.68
2023-02-11T20:17:27.655Z,10.88
2023-02-11T20:20:22.402Z,11.10
2023-02-11T20:22:50.236Z,10.85
2023-02-11T20:25:22.344Z,11.55
2023-02-11T20:28:02.963Z,9.65
2023-02-11T20:30:47.254Z,10.17
2023-02-11T20:33:54.221Z,12.27
2023-02-11T20:36:23.601Z,10.48
2023-02-11T20:38:58.926Z,9.50
2023-02-11T20:41:41.106Z,9.95
2023-02-11T20:44:20.603Z,8.60
2023-02-11T20:46:52.457Z,9.88
2023-02-11T20:49:29.531Z,8.55
2023-02-11T20:52:23.048Z,9.70
2023-02-11T20:55:16.840Z,10.50
2023-02-11T20:57:53.628Z,10.88
2023-02-11T21:00:40.578Z,10.93
2023-02-11T21:03:11.744Z,10.70
2023-02-11T21:05:40.957Z,10.23
2023-02-11T21:08:09.883Z,11.95
2023-02-11T21:11:00.691Z,10.90
2023-02-11T21:13:29.874Z,12.40
2023-02-11T21:15:58.325Z,11.80
2023-02-11T21:18:30.515Z,11.45
2023-02-11T21:21:01.834Z,10.85
2023-02-11T21:23:43.873Z,11.63
2023-02-11T21:26:16.400Z,11.52
2023-02-11T21:28:45.610Z,11.35
2023-02-11T21:31:42.853Z,12.15
2023-02-11T21:34:27.550Z,10.40
2023-02-11T21:36:55.480Z,11.63
2023-02-11T21:39:49.131Z,12.05
2023-02-11T21:42:18.164Z,11.65
2023-02-11T21:44:51.232Z,11.90
2023-02-11T21:47:19.282Z,12.98
2023-02-11T21:49:54.476Z,10.90
2023-02-11T21:52:42.424Z,12.60
2023-02-11T21:55:18.423Z,12.10
2023-02-11T21:57:53.576Z,11.75
2023-02-11T22:00:25.115Z,11.80
2023-02-11T22:05:52.290Z,11.10
2023-02-11T22:08:55.430Z,11.10
2023-02-11T22:11:43.454Z,12.18
2023-02-11T22:14:11.580Z,10.40
2023-02-11T22:16:48.775Z,11.50
2023-02-11T22:19:29.896Z,11.07
2023-02-11T22:25:10.683Z,11.77
2023-02-11T22:27:39.440Z,11.60
2023-02-11T22:30:24.612Z,12.80
2023-02-11T22:33:38.187Z,12.02
2023-02-11T22:36:27.203Z,12.95
2023-02-11T22:38:55.733Z,12.73
2023-02-11T22:41:28.378Z,12.57
2023-02-11T22:43:57.723Z,11.57
2023-02-11T22:46:52.477Z,12.70
2023-02-11T22:49:30.275Z,12.98
2023-02-11T22:52:33.755Z,11.55
2023-02-11T22:55:05.883Z,12.95
2023-02-11T22:57:33.790Z,12.25
2023-02-11T23:00:11.587Z,11.90
2023-02-11T23:02:39.533Z,11.20
2023-02-11T23:05:25.925Z,12.30
2023-02-11T23:07:55.725Z,12.52
2023-02-11T23:10:25.797Z,13.35
2023-02-11T23:12:55.489Z,12.68
2023-02-11T23:15:40.633Z,12.63
2023-02-11T23:18:16.130Z,12.88
2023-02-11T23:20:44.827Z,11.57
2023-02-11T23:23:43.753Z,11.35
2023-02-11T23:26:15.019Z,11.65
2023-02-11T23:32:00.876Z,11.98
2023-02-11T23:34:35.824Z,14.57
2023-02-11T23:37:03.816Z,13.70
2023-02-11T23:39:31.552Z,13.35
2023-02-11T23:42:24.453Z,12.35
2023-02-11T23:44:53.115Z,13.60
2023-02-11T23:47:40.889Z,13.38
2023-02-11T23:50:38.015Z,13.20
2023-02-11T23:53:29.777Z,13.10
2023-02-11T23:56:23.641Z,14.00
2023-02-11T23:58:57.299Z,15.32
